Cutler, IN (46920)

10:22 PM EDT on October 21, 2014 (GMT -0400)
Burlington | Change Station
CLOSE
Current Station
Personal Weather Station
Location: Burlington, IN
Elevation: 712 ft
Nearby Weather Stations

Elev 712 ft 40.49 °N, 86.39 °W | Updated 29 seconds ago

Mostly Cloudy
Mostly Cloudy
41.2 °F
Feels Like 41 °F
N
0.0
Wind Variable Wind from NW

Today
High -- | Low -- °F
--% Chance of Precip.
Yesterday
High -- | Low -- °F
Precip. -- in
8:03 AM 6:57 PM
Waning Crescent, 3% visible
Pressure 30.23 in
Visibility 10.0 miles
Clouds Mostly Cloudy 3500 ft
Windchill 41 °F
Dew Point 39 °F
Humidity 91%
Rainfall 0.02 in
Snow Depth Not available.
UV 0 out of 12
Pollen 1.40 out of 12
Air Quality Not available.
Flu Activity Sporadic
METAR KGGP 220215Z AUTO 02005KT 10SM BKN035 06/03 A3023 RMK AO2

More Conditions Fewer Conditions

Pressure 30.23 in
Visibility 10.0 miles
Clouds Mostly Cloudy 3500 ft
Windchill 41 °F
Dew Point 39 °F
Humidity 91%
Rainfall 0.02 in
Snow Depth Not available.
UV 0 out of 12
Pollen 1.40 out of 12
Air Quality Not available.
Flu Activity Sporadic
METAR KGGP 220215Z AUTO 02005KT 10SM BKN035 06/03 A3023 RMK AO2

More Conditions Fewer Conditions

10-Day Weather Forecast

Almanac

Astronomy

Oct. 21, 2014 Rise Set
Actual Time 8:03 AM EDT 6:57 PM EDT
Civil Twilight 7:35 AM EDT 7:24 PM EDT
Nautical Twilight 7:03 AM EDT 7:56 PM EDT
Astronomical Twilight 6:32 AM EDT 8:28 PM EDT
Moon 5:46 AM EDT (10/21) 5:51 PM EDT (10/21)
Length of Visible Light 11h 49m
Length of Day
10h 53m
Tomorrow will be 2m 31s shorter.
Waning Crescent, 3% of the Moon is Illuminated
Today
Waning Crescent
Oct 23
New
Oct 30
First Quarter
Nov 6
Full
Nov 14
Last Quarter

Community

WunderPhotos

Upload Photos

1,763,858 photos uploaded!

Nearby

Snow Depth

Station Depth Elevation
No new snow has been reported.

Earthquake Activity

City Distance Mag. Time & Date
No recent earthquake activity has been reported nearby.
Minimum magnitude displayed is 2.5.

Coastal Water Temperatures

Place Temperature
No Stations Reporting

Nearby Weather Stations